Time;durP1;ratioP1;P1;durP2;ratioP2;P2;SDS_P1;SDS_P2;PMS_P1;PMS_P2;Temp;Humidity;BMP_temperature;BMP_pressure;BME280_temperature;BME280_humidity;BME280_pressure;Samples;Min_cycle;Max_cycle;Signal;HPM_P1;HPM_P2
2024/01/28 00:00:06;;;;;;;27.05;6.20;;;;;;;;;;1047405;28;20044;-65
2024/01/28 00:00:36;;;;;;;15.65;4.13;;;;;;;;;;1047191;28;20082;-65
2024/01/28 00:01:27;;;;;;;13.73;4.45;;;;;;;;;;1048760;28;20067;-64
2024/01/28 00:02:06;;;;;;;20.38;5.10;;;;;;;;;;1048705;28;20575;-64
2024/01/28 00:02:37;;;;;;;20.77;5.20;;;;;;;;;;1048134;28;20067;-65
2024/01/28 00:03:07;;;;;;;16.63;4.57;;;;;;;;;;1047005;28;20052;-64
2024/01/28 00:03:38;;;;;;;17.27;4.30;;;;;;;;;;1048862;28;20048;-65
2024/01/28 00:04:09;;;;;;;16.60;5.40;;;;;;;;;;1048786;28;20052;-65
2024/01/28 00:04:39;;;;;;;20.25;4.70;;;;;;;;;;1048604;28;20131;-65
2024/01/28 00:05:13;;;;;;;23.48;5.10;;;;;;;;;;1049591;28;20036;-64
2024/01/28 00:05:44;;;;;;;23.70;5.55;;;;;;;;;;1048068;28;20155;-66
2024/01/28 00:06:15;;;;;;;16.67;4.30;;;;;;;;;;1047630;28;20048;-64
2024/01/28 00:06:46;;;;;;;16.13;4.60;;;;;;;;;;1048823;28;20048;-64
2024/01/28 00:07:16;;;;;;;21.65;6.55;;;;;;;;;;1050287;28;20134;-64
2024/01/28 00:07:47;;;;;;;22.65;5.07;;;;;;;;;;1048239;28;20040;-65
2024/01/28 00:08:17;;;;;;;19.50;5.75;;;;;;;;;;1048620;28;20056;-64
2024/01/28 00:08:48;;;;;;;14.60;5.13;;;;;;;;;;1046917;28;20043;-65
2024/01/28 00:09:18;;;;;;;20.73;5.90;;;;;;;;;;1047416;28;20055;-64
2024/01/28 00:09:49;;;;;;;18.27;6.05;;;;;;;;;;1042549;28;20052;-65
2024/01/28 00:10:19;;;;;;;23.50;5.88;;;;;;;;;;1043794;28;20048;-64
2024/01/28 00:10:50;;;;;;;22.75;5.93;;;;;;;;;;1043368;28;20511;-65
2024/01/28 00:11:21;;;;;;;15.95;4.93;;;;;;;;;;1043230;28;20524;-65
2024/01/28 00:11:51;;;;;;;17.45;5.80;;;;;;;;;;1047291;28;20044;-64
2024/01/28 00:12:22;;;;;;;13.00;5.78;;;;;;;;;;1048430;28;20059;-66
2024/01/28 00:12:52;;;;;;;18.50;5.25;;;;;;;;;;1048975;28;20109;-65
2024/01/28 00:13:24;;;;;;;18.27;5.78;;;;;;;;;;1047510;28;20048;-64
2024/01/28 00:13:55;;;;;;;20.60;6.28;;;;;;;;;;1046342;28;20058;-64
2024/01/28 00:14:26;;;;;;;22.83;6.05;;;;;;;;;;1048614;28;20221;-64
2024/01/28 00:14:57;;;;;;;26.33;5.53;;;;;;;;;;1046778;28;20048;-65
2024/01/28 00:15:27;;;;;;;21.17;5.10;;;;;;;;;;1048630;28;20519;-64
2024/01/28 00:15:58;;;;;;;15.27;5.38;;;;;;;;;;1046315;28;20518;-64
2024/01/28 00:16:28;;;;;;;19.27;5.72;;;;;;;;;;1048869;28;20060;-64
2024/01/28 00:16:59;;;;;;;19.23;5.50;;;;;;;;;;1048715;28;20143;-66
2024/01/28 00:17:29;;;;;;;16.15;5.07;;;;;;;;;;1048126;28;20042;-64
2024/01/28 00:18:00;;;;;;;18.60;5.13;;;;;;;;;;1047492;28;20063;-65
2024/01/28 00:18:30;;;;;;;15.35;4.82;;;;;;;;;;1047912;28;20052;-65
2024/01/28 00:19:01;;;;;;;24.17;5.85;;;;;;;;;;1048273;28;20061;-65
2024/01/28 00:19:32;;;;;;;18.10;4.50;;;;;;;;;;1048326;28;20518;-65
2024/01/28 00:20:05;;;;;;;20.60;5.97;;;;;;;;;;1047834;28;20655;-65
2024/01/28 00:20:35;;;;;;;14.68;4.38;;;;;;;;;;1047951;28;20445;-64
2024/01/28 00:21:06;;;;;;;26.83;5.25;;;;;;;;;;1048147;28;20701;-64
2024/01/28 00:21:37;;;;;;;23.73;6.05;;;;;;;;;;1048327;28;20120;-64
2024/01/28 00:22:07;;;;;;;19.15;4.80;;;;;;;;;;1047376;28;20052;-64
2024/01/28 00:22:38;;;;;;;23.95;5.22;;;;;;;;;;1048951;28;20052;-65
2024/01/28 00:23:08;;;;;;;18.55;5.40;;;;;;;;;;1047541;28;20495;-64
2024/01/28 00:23:39;;;;;;;26.60;5.18;;;;;;;;;;1047551;28;20052;-65
2024/01/28 00:24:09;;;;;;;17.33;5.20;;;;;;;;;;1047310;28;20048;-64
2024/01/28 00:24:40;;;;;;;19.75;6.40;;;;;;;;;;1048160;28;20044;-65
2024/01/28 00:25:10;;;;;;;16.67;5.05;;;;;;;;;;1047380;28;20051;-64
2024/01/28 00:25:41;;;;;;;22.90;6.18;;;;;;;;;;1047931;28;20044;-64
2024/01/28 00:26:11;;;;;;;26.13;5.60;;;;;;;;;;1048100;28;20067;-65
2024/01/28 00:26:42;;;;;;;26.52;6.18;;;;;;;;;;1047188;28;20041;-65
2024/01/28 00:27:12;;;;;;;27.38;6.25;;;;;;;;;;1046337;28;20036;-64
2024/01/28 00:27:44;;;;;;;14.88;5.45;;;;;;;;;;1047857;28;20059;-64
2024/01/28 00:28:14;;;;;;;18.85;5.05;;;;;;;;;;1047563;28;20059;-64
2024/01/28 00:28:45;;;;;;;24.00;5.32;;;;;;;;;;1048300;28;20071;-64
2024/01/28 00:29:15;;;;;;;22.75;5.50;;;;;;;;;;1046332;28;20147;-65
2024/01/28 00:29:46;;;;;;;15.13;4.47;;;;;;;;;;1047783;28;20052;-64
2024/01/28 00:30:17;;;;;;;18.08;5.47;;;;;;;;;;1048050;28;20059;-64
2024/01/28 00:30:47;;;;;;;13.82;5.55;;;;;;;;;;1048999;28;20056;-65
2024/01/28 00:31:18;;;;;;;23.27;5.80;;;;;;;;;;1047617;28;20512;-65
2024/01/28 00:31:48;;;;;;;20.30;5.90;;;;;;;;;;1048090;28;20060;-66
2024/01/28 00:32:19;;;;;;;17.70;4.93;;;;;;;;;;1048258;28;20139;-65
2024/01/28 00:32:50;;;;;;;25.17;6.22;;;;;;;;;;1047634;28;20055;-65
2024/01/28 00:33:20;;;;;;;22.30;5.13;;;;;;;;;;1048794;28;20071;-64
2024/01/28 00:33:51;;;;;;;19.17;6.13;;;;;;;;;;1046957;28;20127;-65
2024/01/28 00:34:22;;;;;;;19.48;5.57;;;;;;;;;;1048529;28;20053;-65
2024/01/28 00:34:52;;;;;;;16.83;5.07;;;;;;;;;;1047753;28;20454;-64
2024/01/28 00:35:23;;;;;;;17.60;5.13;;;;;;;;;;1048395;28;20120;-65
2024/01/28 00:35:53;;;;;;;20.33;5.97;;;;;;;;;;1047162;28;20085;-64
2024/01/28 00:36:24;;;;;;;20.02;7.03;;;;;;;;;;1048561;28;20056;-65
2024/01/28 00:36:54;;;;;;;19.63;6.05;;;;;;;;;;1047286;28;20567;-65
2024/01/28 00:37:25;;;;;;;15.38;5.18;;;;;;;;;;1048914;28;20105;-65
2024/01/28 00:37:57;;;;;;;26.13;6.68;;;;;;;;;;1047153;28;20095;-64
2024/01/28 00:38:31;;;;;;;19.65;7.13;;;;;;;;;;1047465;28;20039;-65
2024/01/28 00:39:02;;;;;;;25.38;6.07;;;;;;;;;;1046724;28;20056;-63
2024/01/28 00:39:35;;;;;;;20.17;5.45;;;;;;;;;;1048298;28;20075;-64
2024/01/28 00:40:06;;;;;;;20.80;5.63;;;;;;;;;;1048261;28;20040;-64
2024/01/28 00:40:37;;;;;;;21.85;6.40;;;;;;;;;;1048650;28;20044;-65
2024/01/28 00:41:07;;;;;;;19.38;5.65;;;;;;;;;;1047606;28;20079;-65
2024/01/28 00:41:38;;;;;;;20.95;5.82;;;;;;;;;;1047526;28;20052;-65
2024/01/28 00:42:08;;;;;;;27.20;6.03;;;;;;;;;;1047272;28;20399;-64
2024/01/28 00:42:39;;;;;;;20.15;5.13;;;;;;;;;;1048636;28;20734;-64
2024/01/28 00:43:09;;;;;;;25.05;5.82;;;;;;;;;;1047679;28;20056;-65
2024/01/28 00:43:40;;;;;;;23.25;5.03;;;;;;;;;;1047697;28;20131;-65
2024/01/28 00:44:11;;;;;;;15.85;5.38;;;;;;;;;;1047761;28;20404;-65
2024/01/28 00:44:42;;;;;;;20.80;6.30;;;;;;;;;;1048649;28;20055;-65
2024/01/28 00:45:12;;;;;;;20.15;5.80;;;;;;;;;;1047226;28;20055;-65
2024/01/28 00:45:42;;;;;;;18.77;5.75;;;;;;;;;;1048154;28;20098;-64
2024/01/28 00:46:13;;;;;;;24.98;6.82;;;;;;;;;;1049091;28;20159;-64
2024/01/28 00:46:43;;;;;;;20.08;7.22;;;;;;;;;;1049321;28;20052;-65
2024/01/28 00:47:14;;;;;;;22.20;5.93;;;;;;;;;;1049845;28;20404;-65
2024/01/28 00:47:45;;;;;;;27.67;6.18;;;;;;;;;;1047312;28;20062;-65
2024/01/28 00:48:15;;;;;;;30.20;7.57;;;;;;;;;;1048420;28;20040;-64
2024/01/28 00:48:46;;;;;;;19.10;5.72;;;;;;;;;;1046644;28;20134;-64
2024/01/28 00:49:17;;;;;;;28.63;6.32;;;;;;;;;;1048370;28;20044;-65
2024/01/28 00:49:47;;;;;;;23.08;6.03;;;;;;;;;;1047806;28;20051;-64
2024/01/28 00:50:20;;;;;;;22.65;6.13;;;;;;;;;;1049349;28;20050;-65
2024/01/28 00:50:50;;;;;;;18.90;6.35;;;;;;;;;;1046759;28;20055;-64
2024/01/28 00:51:21;;;;;;;17.58;6.18;;;;;;;;;;1049159;28;20052;-64
2024/01/28 00:51:51;;;;;;;20.92;6.55;;;;;;;;;;1048197;28;20051;-64
2024/01/28 00:52:22;;;;;;;21.33;5.70;;;;;;;;;;1049921;28;20078;-64
2024/01/28 00:52:53;;;;;;;17.35;6.45;;;;;;;;;;1045892;28;20052;-65
2024/01/28 00:53:23;;;;;;;23.08;6.28;;;;;;;;;;1046276;28;20480;-65
2024/01/28 00:53:54;;;;;;;20.33;6.68;;;;;;;;;;1046769;28;20663;-64
2024/01/28 00:54:24;;;;;;;21.63;6.47;;;;;;;;;;1047584;28;20044;-65
2024/01/28 00:54:55;;;;;;;21.50;6.75;;;;;;;;;;1047611;28;20086;-66
2024/01/28 00:55:25;;;;;;;20.00;6.40;;;;;;;;;;1047542;28;20044;-63
2024/01/28 00:55:57;;;;;;;22.15;6.65;;;;;;;;;;1048166;28;20044;-64
2024/01/28 00:56:27;;;;;;;16.83;6.63;;;;;;;;;;1048128;28;20048;-64
2024/01/28 00:56:58;;;;;;;20.70;6.63;;;;;;;;;;1046841;28;20056;-65
2024/01/28 00:57:28;;;;;;;22.35;6.40;;;;;;;;;;1049158;28;20044;-66
2024/01/28 00:58:02;;;;;;;24.05;6.30;;;;;;;;;;1046188;28;20082;-65
2024/01/28 00:58:33;;;;;;;20.45;5.25;;;;;;;;;;1048421;28;20063;-65
2024/01/28 00:59:03;;;;;;;25.90;6.75;;;;;;;;;;1047933;28;20660;-64
2024/01/28 00:59:34;;;;;;;25.35;6.55;;;;;;;;;;1049738;28;20052;-65
2024/01/28 01:00:06;;;;;;;19.00;6.47;;;;;;;;;;1045927;28;20056;-65
2024/01/28 01:00:37;;;;;;;24.02;6.88;;;;;;;;;;1048568;28;20052;-65
2024/01/28 01:01:07;;;;;;;24.58;7.65;;;;;;;;;;1047119;28;20063;-64
2024/01/28 01:01:38;;;;;;;21.15;6.93;;;;;;;;;;1044453;28;20060;-65
2024/01/28 01:02:08;;;;;;;30.40;8.07;;;;;;;;;;1039456;28;20169;-64
2024/01/28 01:02:39;;;;;;;19.73;6.63;;;;;;;;;;1039800;28;20064;-65
2024/01/28 01:03:10;;;;;;;21.52;6.65;;;;;;;;;;1048325;28;20107;-65
2024/01/28 01:03:40;;;;;;;24.25;7.50;;;;;;;;;;1047001;28;21856;-65
2024/01/28 01:04:11;;;;;;;19.48;6.53;;;;;;;;;;1048658;28;20059;-64
2024/01/28 01:04:41;;;;;;;23.60;8.07;;;;;;;;;;1047396;28;20123;-64
2024/01/28 01:05:12;;;;;;;19.73;6.78;;;;;;;;;;1048593;28;20071;-65
2024/01/28 01:05:42;;;;;;;29.40;6.75;;;;;;;;;;1047317;28;20055;-65
2024/01/28 01:06:13;;;;;;;22.95;6.18;;;;;;;;;;1047721;28;20184;-65
2024/01/28 01:06:44;;;;;;;22.30;7.03;;;;;;;;;;1047734;28;20102;-65
2024/01/28 01:07:14;;;;;;;19.23;6.35;;;;;;;;;;1043107;28;20048;-65
2024/01/28 01:07:45;;;;;;;17.90;7.10;;;;;;;;;;1042493;28;20060;-65
2024/01/28 01:08:16;;;;;;;26.25;7.93;;;;;;;;;;1043274;28;20041;-65
2024/01/28 01:08:46;;;;;;;19.60;6.47;;;;;;;;;;1046225;28;20107;-65
2024/01/28 01:09:17;;;;;;;29.27;7.68;;;;;;;;;;1048183;28;20052;-66
2024/01/28 01:09:47;;;;;;;19.50;6.20;;;;;;;;;;1047924;28;20067;-64
2024/01/28 01:10:22;;;;;;;17.50;6.47;;;;;;;;;;1048573;28;20047;-64
2024/01/28 01:10:53;;;;;;;22.77;6.35;;;;;;;;;;1048977;28;20052;-65
2024/01/28 01:11:23;;;;;;;21.77;6.95;;;;;;;;;;1047024;28;20047;-65
2024/01/28 01:11:54;;;;;;;23.08;7.63;;;;;;;;;;1048205;28;20059;-65
2024/01/28 01:12:24;;;;;;;21.15;6.63;;;;;;;;;;1047205;28;20055;-64
2024/01/28 01:12:55;;;;;;;23.02;6.80;;;;;;;;;;1048676;28;20044;-65
2024/01/28 01:13:25;;;;;;;20.83;6.53;;;;;;;;;;1047446;28;20048;-63
2024/01/28 01:13:56;;;;;;;25.77;6.93;;;;;;;;;;1047122;28;20583;-65
2024/01/28 01:14:27;;;;;;;28.98;7.65;;;;;;;;;;1048155;28;20059;-64
2024/01/28 01:14:57;;;;;;;20.77;6.43;;;;;;;;;;1048496;28;21558;-64
2024/01/28 01:15:29;;;;;;;23.70;6.80;;;;;;;;;;1048411;28;20808;-64
2024/01/28 01:16:00;;;;;;;22.45;7.82;;;;;;;;;;1048954;28;20079;-65
2024/01/28 01:16:30;;;;;;;26.77;8.05;;;;;;;;;;1047618;28;20043;-65
2024/01/28 01:17:02;;;;;;;25.67;6.90;;;;;;;;;;1048559;28;20126;-65
2024/01/28 01:17:33;;;;;;;24.77;6.90;;;;;;;;;;1047921;28;20482;-65
2024/01/28 01:18:04;;;;;;;23.05;7.15;;;;;;;;;;1047659;28;20512;-66
2024/01/28 01:18:35;;;;;;;16.83;6.43;;;;;;;;;;1048397;28;20067;-64
2024/01/28 01:19:05;;;;;;;25.00;6.82;;;;;;;;;;1046927;28;20054;-64
2024/01/28 01:19:36;;;;;;;23.80;7.32;;;;;;;;;;1049242;28;20056;-64
2024/01/28 01:20:07;;;;;;;24.35;7.00;;;;;;;;;;1047874;28;20071;-65
2024/01/28 01:20:38;;;;;;;21.80;6.82;;;;;;;;;;1048405;28;20113;-65
2024/01/28 01:21:08;;;;;;;24.05;7.35;;;;;;;;;;1047496;28;20474;-64
2024/01/28 01:21:39;;;;;;;30.33;7.75;;;;;;;;;;1047973;28;20044;-64
2024/01/28 01:22:09;;;;;;;27.92;9.02;;;;;;;;;;1047860;28;20440;-66
2024/01/28 01:22:40;;;;;;;21.73;6.78;;;;;;;;;;1048076;28;20072;-64
2024/01/28 01:23:10;;;;;;;21.60;7.80;;;;;;;;;;1048280;28;20496;-65
2024/01/28 01:23:41;;;;;;;23.15;7.55;;;;;;;;;;1047765;28;20127;-64
2024/01/28 01:24:11;;;;;;;24.27;7.22;;;;;;;;;;1048814;28;22110;-65
2024/01/28 01:24:42;;;;;;;25.50;7.70;;;;;;;;;;1047725;28;20048;-64
2024/01/28 01:25:13;;;;;;;25.52;7.18;;;;;;;;;;1049647;28;20485;-63
2024/01/28 01:25:43;;;;;;;26.90;7.25;;;;;;;;;;1047400;28;20054;-64
2024/01/28 01:26:14;;;;;;;23.13;7.32;;;;;;;;;;1048894;28;20097;-65
2024/01/28 01:26:44;;;;;;;16.45;7.20;;;;;;;;;;1047339;28;20404;-66
2024/01/28 01:27:15;;;;;;;26.30;7.68;;;;;;;;;;1047923;28;20063;-64
2024/01/28 01:27:47;;;;;;;24.60;7.40;;;;;;;;;;1049301;28;20036;-64
2024/01/28 01:28:18;;;;;;;23.33;7.00;;;;;;;;;;1047780;28;20496;-65
2024/01/28 01:28:48;;;;;;;23.73;7.80;;;;;;;;;;1047855;28;20784;-64
2024/01/28 01:29:19;;;;;;;28.17;7.18;;;;;;;;;;1048039;28;20040;-65
2024/01/28 01:29:49;;;;;;;16.45;6.40;;;;;;;;;;1047555;28;20051;-63
2024/01/28 01:30:20;;;;;;;26.52;7.55;;;;;;;;;;1048762;28;20456;-64
2024/01/28 01:30:51;;;;;;;22.17;6.88;;;;;;;;;;1047859;28;20054;-64
2024/01/28 01:31:21;;;;;;;18.05;7.10;;;;;;;;;;1047872;28;20488;-64
2024/01/28 01:31:54;;;;;;;21.00;6.88;;;;;;;;;;1048077;28;20063;-65
2024/01/28 01:32:24;;;;;;;23.00;8.13;;;;;;;;;;1048518;28;21293;-65
2024/01/28 01:32:55;;;;;;;19.80;6.60;;;;;;;;;;1048051;28;20463;-63
2024/01/28 01:33:25;;;;;;;32.00;7.40;;;;;;;;;;1047082;28;20652;-64
2024/01/28 01:33:56;;;;;;;23.48;7.30;;;;;;;;;;1047573;28;20040;-65
2024/01/28 01:34:27;;;;;;;20.75;5.90;;;;;;;;;;1047675;28;20142;-65
2024/01/28 01:34:58;;;;;;;29.42;7.88;;;;;;;;;;1047395;28;20056;-63
2024/01/28 01:35:28;;;;;;;17.50;6.20;;;;;;;;;;1047699;28;20089;-65
2024/01/28 01:35:59;;;;;;;22.20;6.47;;;;;;;;;;1047473;28;20052;-66
2024/01/28 01:36:30;;;;;;;22.60;7.43;;;;;;;;;;1047428;28;20059;-63
2024/01/28 01:37:01;;;;;;;24.38;6.80;;;;;;;;;;1043236;28;20428;-65
2024/01/28 01:37:31;;;;;;;17.00;6.95;;;;;;;;;;1043558;28;20056;-64
2024/01/28 01:38:02;;;;;;;19.45;6.30;;;;;;;;;;1043465;28;20146;-65
2024/01/28 01:38:32;;;;;;;20.00;7.43;;;;;;;;;;1048512;28;20039;-65
2024/01/28 01:39:03;;;;;;;20.00;6.70;;;;;;;;;;1047315;28;20080;-65
2024/01/28 01:39:34;;;;;;;25.60;7.88;;;;;;;;;;1048537;28;20047;-64
2024/01/28 01:40:05;;;;;;;26.20;7.15;;;;;;;;;;1047687;28;20048;-64
2024/01/28 01:40:36;;;;;;;17.73;6.25;;;;;;;;;;1049319;28;20057;-64
2024/01/28 01:41:06;;;;;;;19.70;6.78;;;;;;;;;;1047606;28;20051;-63
2024/01/28 01:41:37;;;;;;;23.58;6.68;;;;;;;;;;1048602;28;20048;-63
2024/01/28 01:42:07;;;;;;;21.65;7.25;;;;;;;;;;1048304;28;20055;-65
2024/01/28 01:42:39;;;;;;;22.35;7.03;;;;;;;;;;1047610;28;20575;-65
2024/01/28 01:43:09;;;;;;;16.30;6.10;;;;;;;;;;1048256;28;20544;-65
2024/01/28 01:43:40;;;;;;;17.58;6.68;;;;;;;;;;1046679;28;20416;-65
2024/01/28 01:44:11;;;;;;;18.85;6.35;;;;;;;;;;1048111;28;20071;-64
2024/01/28 01:44:42;;;;;;;19.63;6.68;;;;;;;;;;1047246;28;20060;-64
2024/01/28 01:45:13;;;;;;;25.70;6.45;;;;;;;;;;1047796;28;20052;-65
2024/01/28 01:45:43;;;;;;;24.05;7.63;;;;;;;;;;1049230;28;20052;-63
2024/01/28 01:46:15;;;;;;;25.88;7.30;;;;;;;;;;1048127;28;20040;-64
2024/01/28 01:46:45;;;;;;;26.50;7.30;;;;;;;;;;1049413;28;20101;-64
2024/01/28 01:47:17;;;;;;;26.55;7.43;;;;;;;;;;1048267;28;20109;-63
2024/01/28 01:47:48;;;;;;;20.95;6.75;;;;;;;;;;1047383;28;20485;-64
2024/01/28 01:48:19;;;;;;;30.13;6.78;;;;;;;;;;1049181;28;22810;-64
2024/01/28 01:48:51;;;;;;;23.50;6.55;;;;;;;;;;1047880;28;20059;-64
2024/01/28 01:49:22;;;;;;;21.15;6.45;;;;;;;;;;1048352;28;20056;-64
2024/01/28 01:49:53;;;;;;;21.67;7.25;;;;;;;;;;1047352;28;20124;-64
2024/01/28 01:50:23;;;;;;;28.63;6.18;;;;;;;;;;1047716;28;20077;-64
2024/01/28 01:50:54;;;;;;;24.20;7.13;;;;;;;;;;1047754;28;20111;-65
2024/01/28 01:51:26;;;;;;;21.73;6.43;;;;;;;;;;1047739;28;20048;-64
2024/01/28 01:51:56;;;;;;;23.63;7.22;;;;;;;;;;1047714;28;20070;-65
2024/01/28 01:52:28;;;;;;;23.55;6.50;;;;;;;;;;1048665;28;20565;-65
2024/01/28 01:53:01;;;;;;;18.10;7.00;;;;;;;;;;1047421;28;20385;-64
2024/01/28 01:53:32;;;;;;;26.38;6.82;;;;;;;;;;1048278;28;20075;-64
2024/01/28 01:54:03;;;;;;;17.70;6.20;;;;;;;;;;1046549;28;20052;-64
2024/01/28 01:54:33;;;;;;;19.90;6.53;;;;;;;;;;1048197;28;20052;-64
2024/01/28 01:55:06;;;;;;;22.42;6.22;;;;;;;;;;1047345;28;20053;-65
2024/01/28 01:55:39;;;;;;;20.92;6.57;;;;;;;;;;1048719;28;20048;-64
2024/01/28 01:56:10;;;;;;;28.90;7.53;;;;;;;;;;1046902;28;20051;-65
2024/01/28 01:56:41;;;;;;;16.55;5.97;;;;;;;;;;1047992;28;20048;-66
2024/01/28 01:57:11;;;;;;;21.30;6.13;;;;;;;;;;1047065;28;20040;-64
2024/01/28 01:57:43;;;;;;;30.30;7.25;;;;;;;;;;1047833;28;20055;-64
2024/01/28 01:58:14;;;;;;;21.90;6.40;;;;;;;;;;1047913;28;20048;-65
2024/01/28 01:58:46;;;;;;;22.75;6.85;;;;;;;;;;1048502;28;20063;-64
2024/01/28 01:59:20;;;;;;;21.52;6.65;;;;;;;;;;1047587;28;20055;-63
2024/01/28 01:59:51;;;;;;;26.60;7.35;;;;;;;;;;1047814;28;20093;-65
2024/01/28 02:00:22;;;;;;;16.67;6.32;;;;;;;;;;1047172;28;20512;-64
2024/01/28 02:00:54;;;;;;;19.48;7.00;;;;;;;;;;1048431;28;20408;-64
2024/01/28 02:01:27;;;;;;;22.60;6.38;;;;;;;;;;1048451;28;20236;-64
2024/01/28 02:01:59;;;;;;;22.05;6.55;;;;;;;;;;1048026;28;20056;-65
2024/01/28 02:02:30;;;;;;;26.67;7.07;;;;;;;;;;1048379;28;20056;-64
2024/01/28 02:03:04;;;;;;;19.23;6.45;;;;;;;;;;1046794;28;20048;-64
2024/01/28 02:03:34;;;;;;;16.58;6.00;;;;;;;;;;1047858;28;20046;-64
2024/01/28 02:04:05;;;;;;;25.15;6.47;;;;;;;;;;1047084;28;20044;-65
2024/01/28 02:04:36;;;;;;;22.33;7.25;;;;;;;;;;1048792;28;20048;-65
2024/01/28 02:05:07;;;;;;;21.42;6.68;;;;;;;;;;1047261;28;20052;-65
2024/01/28 02:05:38;;;;;;;19.90;7.43;;;;;;;;;;1048907;28;20146;-64
2024/01/28 02:06:13;;;;;;;23.17;6.35;;;;;;;;;;1046513;28;20214;-63
2024/01/28 02:06:44;;;;;;;17.92;6.15;;;;;;;;;;1050154;28;20055;-64
2024/01/28 02:07:14;;;;;;;21.17;6.93;;;;;;;;;;1048832;28;20059;-64
2024/01/28 02:07:45;;;;;;;25.90;6.38;;;;;;;;;;1047322;28;20040;-65
2024/01/28 02:08:15;;;;;;;21.58;5.88;;;;;;;;;;1046295;28;20571;-65
2024/01/28 02:08:46;;;;;;;18.55;6.10;;;;;;;;;;1047910;28;20480;-65
2024/01/28 02:09:17;;;;;;;20.80;6.32;;;;;;;;;;1048739;28;20043;-65
2024/01/28 02:09:47;;;;;;;21.42;6.30;;;;;;;;;;1046473;28;20060;-65
2024/01/28 02:10:19;;;;;;;17.98;6.50;;;;;;;;;;1048478;28;20155;-64
2024/01/28 02:10:50;;;;;;;24.35;6.28;;;;;;;;;;1045671;28;20078;-64
2024/01/28 02:11:21;;;;;;;22.75;6.03;;;;;;;;;;1048434;28;20094;-64
2024/01/28 02:11:52;;;;;;;32.17;6.38;;;;;;;;;;1047510;28;20044;-65
2024/01/28 02:12:23;;;;;;;27.73;6.85;;;;;;;;;;1048072;28;20044;-65
2024/01/28 02:12:54;;;;;;;20.98;6.32;;;;;;;;;;1047035;28;20048;-65
2024/01/28 02:13:24;;;;;;;27.42;7.22;;;;;;;;;;1046948;28;20044;-65
2024/01/28 02:13:55;;;;;;;19.02;6.35;;;;;;;;;;1048622;28;20044;-64
2024/01/28 02:14:29;;;;;;;22.42;6.13;;;;;;;;;;1048096;28;20119;-65
2024/01/28 02:15:09;;;;;;;17.75;5.85;;;;;;;;;;1047709;28;20049;-64
2024/01/28 02:15:39;;;;;;;15.73;5.63;;;;;;;;;;1046164;28;20824;-63
2024/01/28 02:16:10;;;;;;;21.08;5.22;;;;;;;;;;1049863;28;20464;-63
2024/01/28 02:16:40;;;;;;;22.83;6.63;;;;;;;;;;1049314;28;20063;-64
2024/01/28 02:17:11;;;;;;;25.05;6.75;;;;;;;;;;1047721;28;20447;-64
2024/01/28 02:17:42;;;;;;;17.52;5.47;;;;;;;;;;1047040;28;20048;-64
2024/01/28 02:18:12;;;;;;;18.23;5.65;;;;;;;;;;1048876;28;20044;-65
2024/01/28 02:18:43;;;;;;;21.20;5.75;;;;;;;;;;1050375;28;20044;-64
2024/01/28 02:19:14;;;;;;;21.23;5.72;;;;;;;;;;1048389;28;20048;-65
2024/01/28 02:19:45;;;;;;;18.60;6.65;;;;;;;;;;1048736;28;20044;-63
2024/01/28 02:20:16;;;;;;;23.02;6.18;;;;;;;;;;1047678;28;20130;-65
2024/01/28 02:20:46;;;;;;;20.15;5.97;;;;;;;;;;1048198;28;20654;-65
2024/01/28 02:21:17;;;;;;;27.73;7.00;;;;;;;;;;1049570;28;20063;-65
2024/01/28 02:21:47;;;;;;;17.75;5.90;;;;;;;;;;1048102;28;20143;-65
2024/01/28 02:22:18;;;;;;;24.38;6.07;;;;;;;;;;1048202;28;20048;-64
2024/01/28 02:22:48;;;;;;;20.80;5.80;;;;;;;;;;1048690;28;20044;-66
2024/01/28 02:23:21;;;;;;;22.95;5.68;;;;;;;;;;1047269;28;20716;-66
2024/01/28 02:23:51;;;;;;;25.60;5.70;;;;;;;;;;1047898;28;20116;-63
2024/01/28 02:24:22;;;;;;;18.35;5.68;;;;;;;;;;1048960;28;20049;-64
2024/01/28 02:24:52;;;;;;;22.83;6.25;;;;;;;;;;1049146;28;20059;-66
2024/01/28 02:25:23;;;;;;;22.20;5.82;;;;;;;;;;1047181;28;20050;-65
2024/01/28 02:25:54;;;;;;;20.60;5.90;;;;;;;;;;1048832;28;20043;-67
2024/01/28 02:26:24;;;;;;;19.55;6.15;;;;;;;;;;1047450;28;20414;-65
2024/01/28 02:26:55;;;;;;;21.13;5.68;;;;;;;;;;1048496;28;20047;-66
2024/01/28 02:27:25;;;;;;;20.17;6.07;;;;;;;;;;1048589;28;20263;-66
2024/01/28 02:27:56;;;;;;;20.13;6.30;;;;;;;;;;1047046;28;20051;-66
2024/01/28 02:28:26;;;;;;;17.30;5.75;;;;;;;;;;1047138;28;20102;-64
2024/01/28 02:28:57;;;;;;;21.05;6.00;;;;;;;;;;1049739;28;20059;-63
2024/01/28 02:29:27;;;;;;;21.83;5.97;;;;;;;;;;1047037;28;20052;-64
2024/01/28 02:29:58;;;;;;;19.45;6.57;;;;;;;;;;1046720;28;20159;-67
2024/01/28 02:30:29;;;;;;;21.83;6.60;;;;;;;;;;1047935;28;20044;-66
2024/01/28 02:30:59;;;;;;;17.52;5.97;;;;;;;;;;1047978;28;20048;-66
2024/01/28 02:31:30;;;;;;;17.17;5.53;;;;;;;;;;1047878;28;20504;-66
2024/01/28 02:32:00;;;;;;;20.48;6.05;;;;;;;;;;1048377;28;20044;-66
2024/01/28 02:32:31;;;;;;;17.30;5.65;;;;;;;;;;1048158;28;20059;-65
2024/01/28 02:33:01;;;;;;;20.75;6.45;;;;;;;;;;1047431;28;20052;-66
2024/01/28 02:33:32;;;;;;;18.15;6.53;;;;;;;;;;1048010;28;20476;-66
2024/01/28 02:34:02;;;;;;;20.65;6.38;;;;;;;;;;1047766;28;20052;-67
2024/01/28 02:34:33;;;;;;;24.80;6.70;;;;;;;;;;1047908;28;20060;-66
2024/01/28 02:35:04;;;;;;;21.40;5.68;;;;;;;;;;1048046;28;20057;-64
2024/01/28 02:35:34;;;;;;;18.75;6.20;;;;;;;;;;1047091;28;20040;-66
2024/01/28 02:36:05;;;;;;;17.25;5.82;;;;;;;;;;1046616;28;20079;-66
2024/01/28 02:36:36;;;;;;;17.20;5.88;;;;;;;;;;1047734;28;20048;-66
2024/01/28 02:37:06;;;;;;;16.75;5.07;;;;;;;;;;1047653;28;20070;-65
2024/01/28 02:37:37;;;;;;;23.88;5.75;;;;;;;;;;1048422;28;20133;-66
2024/01/28 02:38:07;;;;;;;20.40;5.85;;;;;;;;;;1047705;28;20044;-66
2024/01/28 02:38:38;;;;;;;23.92;6.43;;;;;;;;;;1047824;28;20071;-66
2024/01/28 02:39:08;;;;;;;20.40;5.78;;;;;;;;;;1048099;28;20134;-66
2024/01/28 02:39:39;;;;;;;22.80;5.80;;;;;;;;;;1048177;28;20052;-67
2024/01/28 02:40:10;;;;;;;20.42;6.22;;;;;;;;;;1047919;28;20127;-65
2024/01/28 02:40:41;;;;;;;19.83;5.50;;;;;;;;;;1047918;28;20696;-67
2024/01/28 02:41:12;;;;;;;22.05;5.70;;;;;;;;;;1048034;28;20044;-66
2024/01/28 02:41:42;;;;;;;16.65;5.20;;;;;;;;;;1047320;28;20489;-66
2024/01/28 02:42:13;;;;;;;19.63;6.07;;;;;;;;;;1046933;28;20052;-66
2024/01/28 02:42:43;;;;;;;16.67;5.57;;;;;;;;;;1047360;28;20048;-66
2024/01/28 02:43:14;;;;;;;15.95;5.53;;;;;;;;;;1048097;28;20052;-66
2024/01/28 02:43:44;;;;;;;19.65;5.82;;;;;;;;;;1047095;28;20056;-66
2024/01/28 02:44:15;;;;;;;19.38;4.93;;;;;;;;;;1048210;28;20063;-66
2024/01/28 02:44:45;;;;;;;18.38;5.65;;;;;;;;;;1047688;28;20063;-66
2024/01/28 02:45:18;;;;;;;18.23;5.65;;;;;;;;;;1047813;28;20623;-64
2024/01/28 02:45:49;;;;;;;15.57;5.30;;;;;;;;;;1047203;28;20128;-66
2024/01/28 02:46:19;;;;;;;17.10;5.60;;;;;;;;;;1049547;28;20117;-64
2024/01/28 02:46:50;;;;;;;15.77;5.65;;;;;;;;;;1047661;28;20397;-64
2024/01/28 02:47:20;;;;;;;15.07;5.28;;;;;;;;;;1048241;28;20055;-64
2024/01/28 02:47:51;;;;;;;19.85;5.32;;;;;;;;;;1048179;28;20574;-66
2024/01/28 02:48:21;;;;;;;27.38;6.18;;;;;;;;;;1048863;28;20093;-67
2024/01/28 02:48:52;;;;;;;16.83;5.97;;;;;;;;;;1048266;28;20052;-67
2024/01/28 02:49:23;;;;;;;15.05;5.35;;;;;;;;;;1048299;28;20045;-65
2024/01/28 02:49:54;;;;;;;17.85;5.78;;;;;;;;;;1048229;28;20110;-65
2024/01/28 02:50:24;;;;;;;15.32;5.43;;;;;;;;;;1048633;28;20056;-64
2024/01/28 02:50:55;;;;;;;17.85;5.25;;;;;;;;;;1047577;28;20381;-64
2024/01/28 02:51:25;;;;;;;20.20;5.47;;;;;;;;;;1048097;28;20047;-64
2024/01/28 02:51:56;;;;;;;17.17;5.38;;;;;;;;;;1047833;28;20119;-62
2024/01/28 02:52:27;;;;;;;16.33;5.55;;;;;;;;;;1047516;28;20048;-63
2024/01/28 02:52:57;;;;;;;20.33;4.93;;;;;;;;;;1048134;28;20048;-63
2024/01/28 02:53:28;;;;;;;22.30;5.40;;;;;;;;;;1048352;28;20085;-66
2024/01/28 02:53:58;;;;;;;18.55;5.97;;;;;;;;;;1046904;28;20504;-65
2024/01/28 02:54:29;;;;;;;14.68;5.63;;;;;;;;;;1046910;28;20036;-66
2024/01/28 02:54:59;;;;;;;19.48;6.05;;;;;;;;;;1046348;28;20138;-67
2024/01/28 02:55:30;;;;;;;16.27;4.80;;;;;;;;;;1048216;28;20048;-66
2024/01/28 02:56:01;;;;;;;14.75;5.10;;;;;;;;;;1050211;28;20139;-66
2024/01/28 02:56:31;;;;;;;14.68;4.63;;;;;;;;;;1048793;28;20071;-67
2024/01/28 02:57:02;;;;;;;20.73;5.25;;;;;;;;;;1046732;28;20058;-66
2024/01/28 02:57:32;;;;;;;20.85;4.30;;;;;;;;;;1048844;28;20147;-65
2024/01/28 02:58:03;;;;;;;16.15;5.07;;;;;;;;;;1046989;28;20094;-66
2024/01/28 02:58:34;;;;;;;17.67;5.20;;;;;;;;;;1048104;28;20040;-67
2024/01/28 02:59:04;;;;;;;20.50;7.47;;;;;;;;;;1048285;28;20097;-64
2024/01/28 02:59:35;;;;;;;13.75;4.57;;;;;;;;;;1047688;28;20052;-66
2024/01/28 03:00:06;;;;;;;14.27;4.85;;;;;;;;;;1046998;28;20060;-65
2024/01/28 03:00:37;;;;;;;15.98;5.20;;;;;;;;;;1048354;28;20389;-67
2024/01/28 03:01:07;;;;;;;15.25;5.25;;;;;;;;;;1047505;28;20527;-65
2024/01/28 03:01:48;;;;;;;20.60;4.95;;;;;;;;;;1048560;28;20059;-66
2024/01/28 03:02:18;;;;;;;13.05;4.35;;;;;;;;;;1047647;28;20250;-66
2024/01/28 03:02:49;;;;;;;20.70;4.90;;;;;;;;;;1047209;28;20123;-66